createdAt,value
2023-03-31T00:01:30.560Z,11.93
2023-03-31T00:04:33.657Z,13.20
2023-03-31T00:07:38.270Z,13.20
2023-03-31T00:10:46.835Z,13.40
2023-03-31T00:13:49.462Z,15.07
2023-03-31T00:16:52.242Z,15.65
2023-03-31T00:20:00.466Z,14.27
2023-03-31T00:23:03.123Z,14.27
2023-03-31T00:26:06.462Z,14.20
2023-03-31T00:29:10.780Z,14.25
2023-03-31T00:32:14.791Z,14.70
2023-03-31T00:35:17.581Z,13.18
2023-03-31T00:38:22.092Z,17.50
2023-03-31T00:41:26.802Z,19.07
2023-03-31T00:44:31.096Z,17.55
2023-03-31T00:47:34.829Z,14.57
2023-03-31T00:50:42.928Z,17.05
2023-03-31T00:53:49.418Z,18.20
2023-03-31T00:56:53.375Z,17.57
2023-03-31T00:59:59.707Z,16.90
2023-03-31T01:03:06.944Z,17.48
2023-03-31T01:06:12.599Z,14.63
2023-03-31T01:09:17.097Z,13.27
2023-03-31T01:12:21.586Z,12.67
2023-03-31T01:15:24.784Z,12.50
2023-03-31T01:18:29.254Z,12.23
2023-03-31T01:21:48.955Z,13.57
2023-03-31T01:25:10.141Z,13.60
2023-03-31T01:28:45.813Z,14.07
2023-03-31T01:32:22.512Z,14.05
2023-03-31T01:35:43.130Z,15.48
2023-03-31T01:39:21.539Z,14.07
2023-03-31T01:42:48.088Z,14.60
2023-03-31T01:45:59.508Z,14.40
2023-03-31T01:49:05.098Z,14.30
2023-03-31T01:52:28.854Z,15.05
2023-03-31T01:55:43.165Z,14.05
2023-03-31T01:59:02.962Z,14.85
2023-03-31T02:02:22.256Z,14.73
2023-03-31T02:05:27.637Z,20.77
2023-03-31T02:08:36.487Z,19.15
2023-03-31T02:11:40.024Z,17.33
2023-03-31T02:14:45.099Z,17.63
2023-03-31T02:17:51.108Z,14.43
2023-03-31T02:20:57.508Z,16.48
2023-03-31T02:24:08.414Z,15.00
2023-03-31T02:27:13.179Z,13.60
2023-03-31T02:30:16.799Z,13.60
2023-03-31T02:33:19.782Z,12.23
2023-03-31T02:36:23.220Z,13.60
2023-03-31T02:39:30.867Z,14.75
2023-03-31T02:42:33.752Z,15.82
2023-03-31T02:45:42.725Z,14.55
2023-03-31T02:48:51.557Z,13.77
2023-03-31T02:52:00.987Z,12.88
2023-03-31T02:55:16.652Z,15.35
2023-03-31T02:58:43.508Z,13.40
2023-03-31T03:02:23.751Z,15.52
2023-03-31T03:05:49.964Z,16.43
2023-03-31T03:09:32.007Z,14.77
2023-03-31T03:12:49.873Z,12.57
2023-03-31T03:16:04.443Z,14.43
2023-03-31T03:19:07.792Z,12.98
2023-03-31T03:22:10.452Z,12.77
2023-03-31T03:25:15.156Z,14.05
2023-03-31T03:28:17.824Z,15.05
2023-03-31T03:31:21.261Z,15.25
2023-03-31T03:34:25.727Z,13.13
2023-03-31T03:37:28.836Z,13.27
2023-03-31T03:40:31.900Z,15.20
2023-03-31T03:43:34.761Z,14.02
2023-03-31T03:46:37.379Z,14.13
2023-03-31T03:49:40.401Z,14.90
2023-03-31T03:52:43.897Z,14.70
2023-03-31T03:55:49.079Z,14.48
2023-03-31T03:58:51.707Z,15.55
2023-03-31T04:01:54.488Z,16.05
2023-03-31T04:04:57.126Z,15.20
2023-03-31T04:07:59.799Z,14.80
2023-03-31T04:11:02.911Z,13.80
2023-03-31T04:14:05.673Z,14.68
2023-03-31T04:17:10.702Z,14.88
2023-03-31T04:20:13.603Z,14.80
2023-03-31T04:23:16.318Z,15.70
2023-03-31T04:26:26.805Z,14.95
2023-03-31T04:29:33.717Z,19.92
2023-03-31T04:32:36.833Z,16.20
2023-03-31T04:35:52.813Z,18.27
2023-03-31T04:38:56.179Z,15.63
2023-03-31T04:41:59.924Z,16.27
2023-03-31T04:45:03.392Z,31.00
2023-03-31T04:48:06.460Z,50.05
2023-03-31T04:51:09.515Z,18.60
2023-03-31T04:54:12.476Z,17.23
2023-03-31T04:57:15.422Z,14.85
2023-03-31T05:00:18.972Z,14.05
2023-03-31T05:03:22.018Z,12.90
2023-03-31T05:06:24.770Z,12.45
2023-03-31T05:09:27.533Z,12.60
2023-03-31T05:12:30.320Z,16.20
2023-03-31T05:15:34.634Z,18.02
2023-03-31T05:18:37.909Z,16.33
2023-03-31T05:21:40.858Z,18.48
2023-03-31T05:24:43.420Z,17.03
2023-03-31T05:27:48.343Z,12.13
2023-03-31T05:30:51.017Z,14.48
2023-03-31T05:33:53.626Z,14.98
2023-03-31T05:36:56.258Z,15.80
2023-03-31T05:39:59.077Z,15.70
2023-03-31T05:43:01.686Z,16.85
2023-03-31T05:46:05.134Z,15.63
2023-03-31T05:49:08.537Z,16.08
2023-03-31T05:52:11.891Z,14.38
2023-03-31T05:55:14.689Z,15.03
2023-03-31T05:58:17.786Z,13.30
2023-03-31T06:01:22.992Z,14.75
2023-03-31T06:04:28.899Z,14.60
2023-03-31T06:07:31.978Z,13.27
2023-03-31T06:10:36.147Z,16.33
2023-03-31T06:13:39.765Z,15.32
2023-03-31T06:16:42.438Z,14.63
2023-03-31T06:19:45.104Z,14.13
2023-03-31T06:22:47.684Z,15.00
2023-03-31T06:25:51.978Z,14.20
2023-03-31T06:28:54.893Z,13.73
2023-03-31T06:31:57.590Z,13.50
2023-03-31T06:35:00.927Z,13.95
2023-03-31T06:38:03.793Z,13.45
2023-03-31T06:41:07.185Z,13.53
2023-03-31T06:44:10.029Z,12.38
2023-03-31T06:47:12.654Z,13.48
2023-03-31T06:50:15.528Z,12.65
2023-03-31T06:53:18.121Z,13.32
2023-03-31T06:56:20.987Z,12.70
2023-03-31T06:59:23.898Z,12.60
2023-03-31T07:02:27.023Z,13.27
2023-03-31T07:05:30.586Z,13.65
2023-03-31T07:08:33.642Z,19.75
2023-03-31T07:11:36.310Z,13.10
2023-03-31T07:14:39.013Z,12.63
2023-03-31T07:17:44.717Z,13.90
2023-03-31T07:20:50.676Z,14.80
2023-03-31T07:23:53.629Z,16.02
2023-03-31T07:26:56.254Z,15.03
2023-03-31T07:29:59.004Z,17.30
2023-03-31T07:33:01.889Z,18.83
2023-03-31T07:36:12.723Z,18.67
2023-03-31T07:39:16.795Z,16.17
2023-03-31T07:42:19.499Z,16.93
2023-03-31T07:45:24.472Z,15.52
2023-03-31T07:48:28.910Z,15.90
2023-03-31T07:51:31.617Z,13.55
2023-03-31T07:54:34.340Z,14.35
2023-03-31T07:57:40.513Z,14.87
2023-03-31T08:00:43.456Z,14.32
2023-03-31T08:03:47.563Z,15.07
2023-03-31T08:06:51.698Z,13.25
2023-03-31T08:13:13.673Z,13.20
2023-03-31T08:16:16.870Z,12.27
2023-03-31T08:19:20.165Z,13.05
2023-03-31T08:22:23.560Z,14.30
2023-03-31T08:25:26.128Z,12.88
2023-03-31T08:28:29.273Z,12.90
2023-03-31T08:31:32.065Z,13.50
2023-03-31T08:34:34.951Z,14.77
2023-03-31T08:37:40.139Z,13.75
2023-03-31T08:40:42.814Z,14.43
2023-03-31T08:43:47.168Z,14.10
2023-03-31T08:46:52.361Z,13.75
2023-03-31T08:49:59.940Z,13.77
2023-03-31T08:53:13.850Z,13.45
2023-03-31T08:56:20.213Z,15.63
2023-03-31T08:59:28.586Z,13.93
2023-03-31T09:02:48.961Z,14.98
2023-03-31T09:06:15.430Z,14.98
2023-03-31T09:09:30.045Z,14.77
2023-03-31T09:12:42.887Z,14.48
2023-03-31T09:16:16.491Z,14.13
2023-03-31T09:19:38.718Z,13.88
2023-03-31T09:22:50.457Z,14.75
2023-03-31T09:25:54.028Z,13.25
2023-03-31T09:28:57.997Z,14.00
2023-03-31T09:32:16.873Z,14.07
2023-03-31T09:35:21.915Z,14.60
2023-03-31T09:38:29.725Z,14.23
2023-03-31T09:41:34.229Z,15.75
2023-03-31T09:44:40.361Z,14.82
2023-03-31T09:47:45.481Z,14.07
2023-03-31T09:51:01.591Z,13.55
2023-03-31T09:54:12.577Z,13.25
2023-03-31T09:57:24.484Z,12.15
2023-03-31T10:00:28.232Z,12.93
2023-03-31T10:03:36.779Z,13.63
2023-03-31T10:06:41.924Z,12.07
2023-03-31T10:09:44.605Z,11.50
2023-03-31T10:12:51.760Z,11.38
2023-03-31T10:15:56.264Z,12.23
2023-03-31T10:19:12.761Z,12.50
2023-03-31T10:22:26.889Z,11.23
2023-03-31T10:25:29.561Z,12.05
2023-03-31T10:28:34.650Z,10.63
2023-03-31T10:31:38.179Z,11.88
2023-03-31T10:34:42.584Z,12.87
2023-03-31T10:37:45.296Z,12.05
2023-03-31T10:40:53.172Z,12.00
2023-03-31T10:43:58.208Z,14.68
2023-03-31T10:47:06.598Z,12.52
2023-03-31T10:50:15.328Z,10.73
2023-03-31T10:53:19.124Z,11.10
2023-03-31T10:56:31.948Z,13.75
2023-03-31T11:00:04.216Z,11.30
2023-03-31T11:03:44.718Z,12.55
2023-03-31T11:07:01.558Z,12.57
2023-03-31T11:10:29.116Z,11.40
2023-03-31T11:13:36.142Z,11.52
2023-03-31T11:16:52.734Z,12.20
2023-03-31T11:20:07.726Z,12.98
2023-03-31T11:23:22.494Z,13.27
2023-03-31T11:26:37.924Z,12.68
2023-03-31T11:29:51.730Z,12.43
2023-03-31T11:33:18.655Z,9.02
2023-03-31T11:36:46.640Z,13.48
2023-03-31T11:40:18.567Z,10.70
2023-03-31T11:43:36.607Z,11.80
2023-03-31T11:46:49.137Z,12.77
2023-03-31T11:49:55.847Z,11.07
2023-03-31T11:53:04.412Z,12.85
2023-03-31T11:56:08.436Z,13.13
2023-03-31T11:59:16.353Z,11.63
2023-03-31T12:03:00.637Z,13.00
2023-03-31T12:06:07.834Z,13.93
2023-03-31T12:09:19.584Z,11.38
2023-03-31T12:12:29.179Z,13.00
2023-03-31T12:15:38.307Z,12.45
2023-03-31T12:19:06.397Z,13.43
2023-03-31T12:22:09.051Z,13.57
2023-03-31T12:25:16.991Z,13.82
2023-03-31T12:28:19.997Z,13.60
2023-03-31T12:31:23.905Z,14.57
2023-03-31T12:34:27.321Z,13.38
2023-03-31T12:37:48.301Z,15.63
2023-03-31T12:41:27.309Z,12.18
2023-03-31T12:44:44.008Z,13.23
2023-03-31T12:48:26.655Z,16.05
2023-03-31T12:51:46.923Z,15.45
2023-03-31T12:55:21.779Z,14.98
2023-03-31T12:58:32.429Z,15.02
2023-03-31T13:01:35.748Z,12.83
2023-03-31T13:04:38.574Z,15.80
2023-03-31T13:07:42.047Z,14.63
2023-03-31T13:10:57.727Z,13.45
2023-03-31T13:14:13.970Z,12.88
2023-03-31T13:17:35.833Z,13.97
2023-03-31T13:20:40.534Z,13.50
2023-03-31T13:23:46.776Z,14.23
2023-03-31T13:26:52.658Z,13.73
2023-03-31T13:29:56.486Z,12.50
2023-03-31T13:33:10.942Z,12.87
2023-03-31T13:36:34.916Z,14.35
2023-03-31T13:40:08.421Z,13.68
2023-03-31T13:43:29.652Z,14.35
2023-03-31T13:46:51.247Z,14.25
2023-03-31T13:50:14.590Z,13.80
2023-03-31T13:53:45.084Z,15.15
2023-03-31T13:57:09.508Z,13.48
2023-03-31T14:00:15.283Z,12.93
2023-03-31T14:04:02.938Z,13.38
2023-03-31T14:07:10.188Z,12.67
2023-03-31T14:10:42.955Z,12.20
2023-03-31T14:14:01.052Z,13.07
2023-03-31T14:17:03.886Z,11.98
2023-03-31T14:20:50.908Z,11.88
2023-03-31T14:24:05.727Z,13.70
2023-03-31T14:27:31.139Z,14.15
2023-03-31T14:30:42.971Z,12.80
2023-03-31T14:34:06.611Z,12.57
2023-03-31T14:37:17.952Z,13.40
2023-03-31T14:40:20.848Z,12.87
2023-03-31T14:43:28.850Z,13.65
2023-03-31T14:46:33.194Z,19.52
2023-03-31T14:49:38.534Z,15.02
2023-03-31T14:52:48.244Z,16.23
2023-03-31T14:55:58.698Z,13.27
2023-03-31T14:59:03.274Z,13.75
2023-03-31T15:02:06.654Z,14.45
2023-03-31T15:05:19.199Z,12.98
2023-03-31T15:08:23.013Z,15.52
2023-03-31T15:11:28.953Z,34.93
2023-03-31T15:14:34.669Z,26.02
2023-03-31T15:17:40.616Z,18.42
2023-03-31T15:20:45.183Z,16.30
2023-03-31T15:23:48.408Z,20.58
2023-03-31T15:27:02.827Z,16.40
2023-03-31T15:30:09.444Z,16.65
2023-03-31T15:33:20.212Z,17.92
2023-03-31T15:36:23.690Z,20.48
2023-03-31T15:39:28.341Z,21.58
2023-03-31T15:42:32.104Z,23.10
2023-03-31T15:45:45.629Z,21.70
2023-03-31T15:48:55.548Z,18.52
2023-03-31T15:52:00.658Z,16.48
2023-03-31T15:55:23.265Z,17.40
2023-03-31T15:58:47.388Z,16.70
2023-03-31T16:01:50.632Z,15.80
2023-03-31T16:04:59.091Z,18.33
2023-03-31T16:08:03.022Z,16.08
2023-03-31T16:11:11.196Z,18.90
2023-03-31T16:14:25.861Z,18.63
2023-03-31T16:17:39.109Z,16.80
2023-03-31T16:20:46.157Z,19.23
2023-03-31T16:23:53.240Z,18.13
2023-03-31T16:27:01.604Z,18.25
2023-03-31T16:30:10.963Z,20.07
2023-03-31T16:33:19.624Z,18.02
2023-03-31T16:36:22.278Z,21.73
2023-03-31T16:39:25.988Z,19.73
2023-03-31T16:42:28.826Z,18.58
2023-03-31T16:45:31.430Z,19.50
2023-03-31T16:48:34.988Z,19.13
2023-03-31T16:51:37.731Z,18.23
2023-03-31T16:54:40.611Z,20.25
2023-03-31T16:57:43.327Z,19.38
2023-03-31T17:00:46.368Z,26.63
2023-03-31T17:03:49.517Z,19.15
2023-03-31T17:06:52.544Z,19.33
2023-03-31T17:09:55.443Z,18.17
2023-03-31T17:12:58.234Z,19.08
2023-03-31T17:16:16.095Z,18.47
2023-03-31T17:19:22.731Z,18.33
2023-03-31T17:22:25.741Z,17.80
2023-03-31T17:25:28.788Z,16.20
2023-03-31T17:28:31.478Z,17.95
2023-03-31T17:31:34.386Z,16.77
2023-03-31T17:34:38.366Z,18.73
2023-03-31T17:37:41.378Z,18.33
2023-03-31T17:40:44.217Z,17.65
2023-03-31T17:43:49.062Z,19.77
2023-03-31T17:46:52.034Z,17.80
2023-03-31T17:49:54.853Z,18.25
2023-03-31T17:52:58.504Z,16.10
2023-03-31T17:56:03.363Z,17.98
2023-03-31T17:59:06.622Z,19.73
2023-03-31T18:02:13.180Z,18.23
2023-03-31T18:05:18.205Z,17.52
2023-03-31T18:08:22.021Z,17.60
2023-03-31T18:11:24.986Z,17.00
2023-03-31T18:14:27.830Z,17.00
2023-03-31T18:17:31.453Z,22.97
2023-03-31T18:20:34.641Z,20.75
2023-03-31T18:23:37.953Z,22.77
2023-03-31T18:26:40.833Z,17.25
2023-03-31T18:29:44.304Z,16.85
2023-03-31T18:32:48.314Z,17.50
2023-03-31T18:35:51.385Z,18.75
2023-03-31T18:38:55.478Z,22.00
2023-03-31T18:41:59.682Z,21.13
2023-03-31T18:45:02.739Z,22.83
2023-03-31T18:48:06.256Z,18.43
2023-03-31T18:51:09.643Z,18.50
2023-03-31T18:54:12.639Z,19.98
2023-03-31T18:57:15.788Z,19.85
2023-03-31T19:00:19.014Z,18.83
2023-03-31T19:03:22.429Z,17.60
2023-03-31T19:06:25.576Z,18.73
2023-03-31T19:09:28.936Z,20.05
2023-03-31T19:12:32.325Z,22.00
2023-03-31T19:15:37.507Z,20.70
2023-03-31T19:18:40.127Z,19.20
2023-03-31T19:21:43.811Z,21.13
2023-03-31T19:24:47.183Z,19.77
2023-03-31T19:27:50.453Z,21.00
2023-03-31T19:30:56.425Z,20.20
2023-03-31T19:33:59.735Z,20.20
2023-03-31T19:37:02.571Z,22.42
2023-03-31T19:40:07.294Z,18.38
2023-03-31T19:43:23.125Z,18.65
2023-03-31T19:46:26.080Z,19.20
2023-03-31T19:49:29.054Z,20.97
2023-03-31T19:52:32.042Z,17.38
2023-03-31T19:55:37.577Z,18.30
2023-03-31T19:58:41.442Z,19.98
2023-03-31T20:01:44.736Z,18.38
2023-03-31T20:04:47.989Z,20.50
2023-03-31T20:07:50.627Z,17.40
2023-03-31T20:10:53.350Z,18.55
2023-03-31T20:13:57.423Z,17.98
2023-03-31T20:17:01.242Z,18.52
2023-03-31T20:20:05.838Z,19.10
2023-03-31T20:23:08.833Z,18.85
2023-03-31T20:26:14.561Z,18.35
2023-03-31T20:29:17.834Z,17.63
2023-03-31T20:32:20.690Z,18.85
2023-03-31T20:35:24.347Z,18.60
2023-03-31T20:38:28.333Z,17.15
2023-03-31T20:41:31.900Z,17.77
2023-03-31T20:44:34.822Z,17.75
2023-03-31T20:47:37.900Z,17.00
2023-03-31T20:50:41.969Z,16.57
2023-03-31T20:53:46.957Z,17.95
2023-03-31T20:56:51.160Z,16.60
2023-03-31T20:59:54.787Z,16.23
2023-03-31T21:02:57.446Z,16.98
2023-03-31T21:06:04.953Z,16.33
2023-03-31T21:09:09.124Z,17.42
2023-03-31T21:12:11.756Z,19.73
2023-03-31T21:15:14.503Z,17.42
2023-03-31T21:18:17.240Z,14.90
2023-03-31T21:21:19.988Z,16.27
2023-03-31T21:24:22.639Z,17.63
2023-03-31T21:27:25.317Z,18.15
2023-03-31T21:30:28.329Z,16.70
2023-03-31T21:33:31.452Z,16.98
2023-03-31T21:36:34.173Z,15.07
2023-03-31T21:39:36.928Z,20.17
2023-03-31T21:42:39.667Z,19.95
2023-03-31T21:45:42.421Z,16.88
2023-03-31T21:48:45.456Z,14.75
2023-03-31T21:51:49.090Z,15.13
2023-03-31T21:54:51.949Z,15.93
2023-03-31T21:57:54.511Z,16.35
2023-03-31T22:00:59.802Z,15.93
2023-03-31T22:04:03.217Z,15.90
2023-03-31T22:07:05.928Z,16.10
2023-03-31T22:10:09.223Z,15.98
2023-03-31T22:13:11.862Z,15.82
2023-03-31T22:16:19.693Z,17.20
2023-03-31T22:19:22.353Z,17.08
2023-03-31T22:22:25.562Z,17.17
2023-03-31T22:25:28.214Z,19.88
2023-03-31T22:28:31.209Z,19.48
2023-03-31T22:31:33.953Z,17.27
2023-03-31T22:34:36.755Z,16.48
2023-03-31T22:37:39.388Z,16.03
2023-03-31T22:40:42.460Z,15.57
2023-03-31T22:43:46.296Z,15.55
2023-03-31T22:46:50.764Z,16.00
2023-03-31T22:49:53.891Z,15.38
2023-03-31T22:52:56.778Z,16.87
2023-03-31T22:56:06.449Z,14.45
2023-03-31T22:59:09.268Z,16.88
2023-03-31T23:02:11.934Z,17.77
2023-03-31T23:05:14.687Z,17.35
2023-03-31T23:08:17.620Z,15.83
2023-03-31T23:11:20.392Z,15.35
2023-03-31T23:14:27.158Z,17.17
2023-03-31T23:17:30.832Z,16.75
2023-03-31T23:20:33.491Z,15.43
2023-03-31T23:23:36.159Z,16.37
2023-03-31T23:26:38.761Z,16.40
2023-03-31T23:29:41.996Z,16.20
2023-03-31T23:32:44.902Z,15.52
2023-03-31T23:35:49.035Z,15.57
2023-03-31T23:38:53.269Z,15.73
2023-03-31T23:41:55.942Z,18.00
2023-03-31T23:44:58.675Z,20.30
2023-03-31T23:48:01.338Z,17.08
2023-03-31T23:51:05.684Z,17.63
2023-03-31T23:54:08.443Z,17.20
2023-03-31T23:57:11.160Z,18.70
